Notice: Undefined index: station in /home3/dimtiris/public_html/webApp/metar/index.php on line 4

Metar

Weather conditions for all airports of the world. Just type the ICAO code of an airport.

LGAV 251820Z 19007KT 9999 FEW035 20/10 Q1008 NOSIG

STATION LGAV
OBSERVED Wed May 25, 12:20 MDT
NOW Wed May 25, 12:46 MDT
AGE 26 min ago
WIND S at 8 mph
VISIBILITY 16 miles
CONDITIONS
CLOUDS partly cloudy
TEMP 68°F (20°C)
DEWPT 50°F (10°C)
HUMIDITY 53%
BAROMETER 1008 hPa (29.77 in Hg)

Get weather info from other station:

Some ICAO codes to try: